sensor_id;sensor_type;location;lat;lon;timestamp;P1;durP1;ratioP1;P2;durP2;ratioP2
36411;SDS011;22445;52.100;5.176;2023-05-21T00:00:11;2.55;;;1.50;;
36411;SDS011;22445;52.100;5.176;2023-05-21T00:02:37;1.92;;;1.48;;
36411;SDS011;22445;52.100;5.176;2023-05-21T00:05:03;2.80;;;1.45;;
36411;SDS011;22445;52.100;5.176;2023-05-21T00:07:29;2.00;;;1.60;;
36411;SDS011;22445;52.100;5.176;2023-05-21T00:09:58;2.33;;;1.90;;
36411;SDS011;22445;52.100;5.176;2023-05-21T00:12:23;2.95;;;2.17;;
36411;SDS011;22445;52.100;5.176;2023-05-21T00:14:49;2.70;;;1.92;;
36411;SDS011;22445;52.100;5.176;2023-05-21T00:17:14;2.90;;;1.80;;
36411;SDS011;22445;52.100;5.176;2023-05-21T00:19:40;3.10;;;2.20;;
36411;SDS011;22445;52.100;5.176;2023-05-21T00:22:05;4.43;;;1.73;;
36411;SDS011;22445;52.100;5.176;2023-05-21T00:24:31;2.00;;;1.80;;
36411;SDS011;22445;52.100;5.176;2023-05-21T00:26:56;4.03;;;2.20;;
36411;SDS011;22445;52.100;5.176;2023-05-21T00:29:22;5.00;;;2.15;;
36411;SDS011;22445;52.100;5.176;2023-05-21T00:31:47;2.47;;;1.90;;
36411;SDS011;22445;52.100;5.176;2023-05-21T00:34:15;4.63;;;2.20;;
36411;SDS011;22445;52.100;5.176;2023-05-21T00:36:40;4.43;;;2.28;;
36411;SDS011;22445;52.100;5.176;2023-05-21T00:39:09;4.60;;;2.30;;
36411;SDS011;22445;52.100;5.176;2023-05-21T00:41:35;2.85;;;2.00;;
36411;SDS011;22445;52.100;5.176;2023-05-21T00:44:04;2.83;;;1.85;;
36411;SDS011;22445;52.100;5.176;2023-05-21T00:46:31;4.53;;;2.53;;
36411;SDS011;22445;52.100;5.176;2023-05-21T00:48:56;2.35;;;2.03;;
36411;SDS011;22445;52.100;5.176;2023-05-21T00:51:23;2.97;;;2.33;;
36411;SDS011;22445;52.100;5.176;2023-05-21T00:53:49;4.53;;;2.30;;
36411;SDS011;22445;52.100;5.176;2023-05-21T00:56:16;5.63;;;2.50;;
36411;SDS011;22445;52.100;5.176;2023-05-21T00:58:43;3.05;;;2.13;;
36411;SDS011;22445;52.100;5.176;2023-05-21T01:01:09;3.75;;;2.13;;
36411;SDS011;22445;52.100;5.176;2023-05-21T01:03:37;4.18;;;2.25;;
36411;SDS011;22445;52.100;5.176;2023-05-21T01:06:04;2.40;;;2.20;;
36411;SDS011;22445;52.100;5.176;2023-05-21T01:08:30;4.18;;;2.33;;
36411;SDS011;22445;52.100;5.176;2023-05-21T01:10:56;2.33;;;2.13;;
36411;SDS011;22445;52.100;5.176;2023-05-21T01:13:23;4.15;;;2.70;;
36411;SDS011;22445;52.100;5.176;2023-05-21T01:15:49;3.25;;;2.20;;
36411;SDS011;22445;52.100;5.176;2023-05-21T01:18:15;3.92;;;2.17;;
36411;SDS011;22445;52.100;5.176;2023-05-21T01:20:41;5.55;;;2.38;;
36411;SDS011;22445;52.100;5.176;2023-05-21T01:23:15;5.10;;;2.22;;
36411;SDS011;22445;52.100;5.176;2023-05-21T01:25:41;4.45;;;2.63;;
36411;SDS011;22445;52.100;5.176;2023-05-21T01:28:07;3.10;;;2.30;;
36411;SDS011;22445;52.100;5.176;2023-05-21T01:30:33;4.47;;;2.30;;
36411;SDS011;22445;52.100;5.176;2023-05-21T01:33:03;3.00;;;2.58;;
36411;SDS011;22445;52.100;5.176;2023-05-21T01:38:51;4.75;;;2.30;;
36411;SDS011;22445;52.100;5.176;2023-05-21T01:41:21;3.33;;;3.03;;
36411;SDS011;22445;52.100;5.176;2023-05-21T01:43:48;3.50;;;2.55;;
36411;SDS011;22445;52.100;5.176;2023-05-21T01:46:16;3.40;;;3.05;;
36411;SDS011;22445;52.100;5.176;2023-05-21T01:48:42;7.00;;;2.83;;
36411;SDS011;22445;52.100;5.176;2023-05-21T01:51:08;4.35;;;2.83;;
36411;SDS011;22445;52.100;5.176;2023-05-21T01:53:34;3.53;;;2.70;;
36411;SDS011;22445;52.100;5.176;2023-05-21T01:56:03;5.88;;;2.80;;
36411;SDS011;22445;52.100;5.176;2023-05-21T01:58:29;4.25;;;3.30;;
36411;SDS011;22445;52.100;5.176;2023-05-21T02:00:55;5.95;;;3.38;;
36411;SDS011;22445;52.100;5.176;2023-05-21T02:03:21;4.60;;;3.20;;
36411;SDS011;22445;52.100;5.176;2023-05-21T02:05:49;3.78;;;2.53;;
36411;SDS011;22445;52.100;5.176;2023-05-21T02:08:16;4.07;;;3.03;;
36411;SDS011;22445;52.100;5.176;2023-05-21T02:10:44;4.38;;;3.10;;
36411;SDS011;22445;52.100;5.176;2023-05-21T02:13:10;4.07;;;2.92;;
36411;SDS011;22445;52.100;5.176;2023-05-21T02:15:35;6.25;;;3.40;;
36411;SDS011;22445;52.100;5.176;2023-05-21T02:18:01;4.28;;;3.13;;
36411;SDS011;22445;52.100;5.176;2023-05-21T02:20:27;4.13;;;3.15;;
36411;SDS011;22445;52.100;5.176;2023-05-21T02:22:53;5.75;;;3.42;;
36411;SDS011;22445;52.100;5.176;2023-05-21T02:25:21;8.68;;;3.38;;
36411;SDS011;22445;52.100;5.176;2023-05-21T02:27:47;4.75;;;2.63;;
36411;SDS011;22445;52.100;5.176;2023-05-21T02:30:16;3.30;;;2.53;;
36411;SDS011;22445;52.100;5.176;2023-05-21T02:32:42;3.65;;;3.00;;
36411;SDS011;22445;52.100;5.176;2023-05-21T02:35:09;5.00;;;3.33;;
36411;SDS011;22445;52.100;5.176;2023-05-21T02:37:36;5.45;;;3.53;;
36411;SDS011;22445;52.100;5.176;2023-05-21T02:40:03;3.58;;;2.83;;
36411;SDS011;22445;52.100;5.176;2023-05-21T02:42:30;3.65;;;3.28;;
36411;SDS011;22445;52.100;5.176;2023-05-21T02:44:56;3.20;;;2.85;;
36411;SDS011;22445;52.100;5.176;2023-05-21T02:47:24;3.45;;;3.15;;
36411;SDS011;22445;52.100;5.176;2023-05-21T02:49:50;6.38;;;3.17;;
36411;SDS011;22445;52.100;5.176;2023-05-21T02:52:17;3.72;;;3.30;;
36411;SDS011;22445;52.100;5.176;2023-05-21T02:54:43;3.20;;;2.70;;
36411;SDS011;22445;52.100;5.176;2023-05-21T02:57:09;5.95;;;3.00;;
36411;SDS011;22445;52.100;5.176;2023-05-21T02:59:35;4.03;;;3.25;;
36411;SDS011;22445;52.100;5.176;2023-05-21T03:02:01;4.70;;;3.25;;
36411;SDS011;22445;52.100;5.176;2023-05-21T03:04:26;6.30;;;2.72;;
36411;SDS011;22445;52.100;5.176;2023-05-21T03:06:52;3.83;;;3.30;;
36411;SDS011;22445;52.100;5.176;2023-05-21T03:09:22;4.85;;;3.45;;
36411;SDS011;22445;52.100;5.176;2023-05-21T03:11:48;3.03;;;2.67;;
36411;SDS011;22445;52.100;5.176;2023-05-21T03:14:14;4.20;;;3.17;;
36411;SDS011;22445;52.100;5.176;2023-05-21T03:16:40;3.47;;;3.05;;
36411;SDS011;22445;52.100;5.176;2023-05-21T03:19:11;4.20;;;3.60;;
36411;SDS011;22445;52.100;5.176;2023-05-21T03:21:37;4.40;;;3.10;;
36411;SDS011;22445;52.100;5.176;2023-05-21T03:24:04;4.88;;;3.40;;
36411;SDS011;22445;52.100;5.176;2023-05-21T03:26:30;3.60;;;2.97;;
36411;SDS011;22445;52.100;5.176;2023-05-21T03:28:55;4.22;;;3.33;;
36411;SDS011;22445;52.100;5.176;2023-05-21T03:31:24;3.88;;;3.30;;
36411;SDS011;22445;52.100;5.176;2023-05-21T03:33:50;4.45;;;3.63;;
36411;SDS011;22445;52.100;5.176;2023-05-21T03:36:16;4.55;;;3.42;;
36411;SDS011;22445;52.100;5.176;2023-05-21T03:38:42;4.78;;;3.58;;
36411;SDS011;22445;52.100;5.176;2023-05-21T03:41:08;4.13;;;3.60;;
36411;SDS011;22445;52.100;5.176;2023-05-21T03:43:34;5.53;;;3.88;;
36411;SDS011;22445;52.100;5.176;2023-05-21T03:46:00;3.58;;;3.20;;
36411;SDS011;22445;52.100;5.176;2023-05-21T03:48:26;5.53;;;4.18;;
36411;SDS011;22445;52.100;5.176;2023-05-21T03:50:51;3.95;;;3.25;;
36411;SDS011;22445;52.100;5.176;2023-05-21T03:53:17;5.95;;;3.50;;
36411;SDS011;22445;52.100;5.176;2023-05-21T03:55:42;5.80;;;3.78;;
36411;SDS011;22445;52.100;5.176;2023-05-21T03:58:08;4.75;;;3.20;;
36411;SDS011;22445;52.100;5.176;2023-05-21T04:00:35;4.20;;;3.72;;
36411;SDS011;22445;52.100;5.176;2023-05-21T04:03:04;5.38;;;3.72;;
36411;SDS011;22445;52.100;5.176;2023-05-21T04:05:31;5.05;;;3.58;;
36411;SDS011;22445;52.100;5.176;2023-05-21T04:07:57;4.63;;;3.40;;
36411;SDS011;22445;52.100;5.176;2023-05-21T04:10:23;4.10;;;3.53;;
36411;SDS011;22445;52.100;5.176;2023-05-21T04:12:48;5.45;;;3.60;;
36411;SDS011;22445;52.100;5.176;2023-05-21T04:15:16;6.78;;;3.30;;
36411;SDS011;22445;52.100;5.176;2023-05-21T04:17:45;4.05;;;3.50;;
36411;SDS011;22445;52.100;5.176;2023-05-21T04:20:11;4.35;;;3.10;;
36411;SDS011;22445;52.100;5.176;2023-05-21T04:22:38;4.47;;;3.20;;
36411;SDS011;22445;52.100;5.176;2023-05-21T04:25:03;3.85;;;3.15;;
36411;SDS011;22445;52.100;5.176;2023-05-21T04:27:29;3.35;;;2.92;;
36411;SDS011;22445;52.100;5.176;2023-05-21T04:29:55;4.78;;;3.47;;
36411;SDS011;22445;52.100;5.176;2023-05-21T04:32:22;3.97;;;3.20;;
36411;SDS011;22445;52.100;5.176;2023-05-21T04:34:48;4.65;;;3.20;;
36411;SDS011;22445;52.100;5.176;2023-05-21T04:37:14;4.78;;;3.58;;
36411;SDS011;22445;52.100;5.176;2023-05-21T04:39:42;5.93;;;3.60;;
36411;SDS011;22445;52.100;5.176;2023-05-21T04:42:08;5.97;;;2.92;;
36411;SDS011;22445;52.100;5.176;2023-05-21T04:44:35;3.65;;;2.97;;
36411;SDS011;22445;52.100;5.176;2023-05-21T04:47:02;4.95;;;3.40;;
36411;SDS011;22445;52.100;5.176;2023-05-21T04:49:28;3.47;;;2.90;;
36411;SDS011;22445;52.100;5.176;2023-05-21T04:51:54;5.68;;;2.97;;
36411;SDS011;22445;52.100;5.176;2023-05-21T04:54:19;3.10;;;2.63;;
36411;SDS011;22445;52.100;5.176;2023-05-21T04:56:45;4.22;;;3.03;;
36411;SDS011;22445;52.100;5.176;2023-05-21T04:59:11;4.78;;;3.10;;
36411;SDS011;22445;52.100;5.176;2023-05-21T05:01:37;6.45;;;3.10;;
36411;SDS011;22445;52.100;5.176;2023-05-21T05:04:03;3.70;;;3.22;;
36411;SDS011;22445;52.100;5.176;2023-05-21T05:06:29;4.38;;;3.10;;
36411;SDS011;22445;52.100;5.176;2023-05-21T05:08:55;5.53;;;3.30;;
36411;SDS011;22445;52.100;5.176;2023-05-21T05:11:20;7.40;;;3.38;;
36411;SDS011;22445;52.100;5.176;2023-05-21T05:13:46;5.30;;;3.20;;
36411;SDS011;22445;52.100;5.176;2023-05-21T05:16:12;6.93;;;3.15;;
36411;SDS011;22445;52.100;5.176;2023-05-21T05:18:38;4.63;;;2.92;;
36411;SDS011;22445;52.100;5.176;2023-05-21T05:21:04;5.18;;;3.38;;
36411;SDS011;22445;52.100;5.176;2023-05-21T05:23:30;4.35;;;2.97;;
36411;SDS011;22445;52.100;5.176;2023-05-21T05:25:55;4.45;;;3.50;;
36411;SDS011;22445;52.100;5.176;2023-05-21T05:28:21;3.88;;;3.25;;
36411;SDS011;22445;52.100;5.176;2023-05-21T05:30:46;4.80;;;3.38;;
36411;SDS011;22445;52.100;5.176;2023-05-21T05:33:12;4.25;;;3.60;;
36411;SDS011;22445;52.100;5.176;2023-05-21T05:35:37;6.28;;;3.50;;
36411;SDS011;22445;52.100;5.176;2023-05-21T05:38:04;4.10;;;3.17;;
36411;SDS011;22445;52.100;5.176;2023-05-21T05:40:29;6.38;;;3.33;;
36411;SDS011;22445;52.100;5.176;2023-05-21T05:42:55;3.90;;;3.35;;
36411;SDS011;22445;52.100;5.176;2023-05-21T05:45:20;5.07;;;4.35;;
36411;SDS011;22445;52.100;5.176;2023-05-21T05:47:46;4.47;;;3.38;;
36411;SDS011;22445;52.100;5.176;2023-05-21T05:50:12;4.47;;;3.40;;
36411;SDS011;22445;52.100;5.176;2023-05-21T05:52:37;5.55;;;3.80;;
36411;SDS011;22445;52.100;5.176;2023-05-21T05:55:03;6.03;;;4.25;;
36411;SDS011;22445;52.100;5.176;2023-05-21T05:57:29;4.85;;;3.75;;
36411;SDS011;22445;52.100;5.176;2023-05-21T05:59:54;4.75;;;3.70;;
36411;SDS011;22445;52.100;5.176;2023-05-21T06:02:20;3.95;;;3.55;;
36411;SDS011;22445;52.100;5.176;2023-05-21T06:04:46;6.65;;;4.72;;
36411;SDS011;22445;52.100;5.176;2023-05-21T06:07:11;6.57;;;3.72;;
36411;SDS011;22445;52.100;5.176;2023-05-21T06:09:37;5.93;;;4.10;;
36411;SDS011;22445;52.100;5.176;2023-05-21T06:12:04;5.35;;;3.65;;
36411;SDS011;22445;52.100;5.176;2023-05-21T06:14:30;8.48;;;4.30;;
36411;SDS011;22445;52.100;5.176;2023-05-21T06:16:56;4.55;;;3.70;;
36411;SDS011;22445;52.100;5.176;2023-05-21T06:19:21;3.55;;;3.22;;
36411;SDS011;22445;52.100;5.176;2023-05-21T06:21:47;5.18;;;4.18;;
36411;SDS011;22445;52.100;5.176;2023-05-21T06:24:14;4.53;;;4.13;;
36411;SDS011;22445;52.100;5.176;2023-05-21T06:26:40;6.63;;;4.50;;
36411;SDS011;22445;52.100;5.176;2023-05-21T06:29:06;4.68;;;4.18;;
36411;SDS011;22445;52.100;5.176;2023-05-21T06:31:31;4.07;;;3.60;;
36411;SDS011;22445;52.100;5.176;2023-05-21T06:33:57;5.45;;;3.95;;
36411;SDS011;22445;52.100;5.176;2023-05-21T06:36:24;5.63;;;4.22;;
36411;SDS011;22445;52.100;5.176;2023-05-21T06:38:53;5.00;;;3.80;;
36411;SDS011;22445;52.100;5.176;2023-05-21T06:41:20;5.57;;;4.00;;
36411;SDS011;22445;52.100;5.176;2023-05-21T06:43:46;6.68;;;3.70;;
36411;SDS011;22445;52.100;5.176;2023-05-21T06:46:11;4.60;;;3.78;;
36411;SDS011;22445;52.100;5.176;2023-05-21T06:48:37;5.50;;;3.97;;
36411;SDS011;22445;52.100;5.176;2023-05-21T06:51:03;6.60;;;4.55;;
36411;SDS011;22445;52.100;5.176;2023-05-21T06:53:28;6.05;;;4.13;;
36411;SDS011;22445;52.100;5.176;2023-05-21T06:55:54;5.13;;;4.63;;
36411;SDS011;22445;52.100;5.176;2023-05-21T06:58:19;5.05;;;3.90;;
36411;SDS011;22445;52.100;5.176;2023-05-21T07:00:45;6.65;;;4.07;;
36411;SDS011;22445;52.100;5.176;2023-05-21T07:03:11;5.10;;;4.07;;
36411;SDS011;22445;52.100;5.176;2023-05-21T07:05:37;5.32;;;4.40;;
36411;SDS011;22445;52.100;5.176;2023-05-21T07:08:03;6.97;;;4.20;;
36411;SDS011;22445;52.100;5.176;2023-05-21T07:10:28;6.93;;;5.13;;
36411;SDS011;22445;52.100;5.176;2023-05-21T07:12:54;4.82;;;4.15;;
36411;SDS011;22445;52.100;5.176;2023-05-21T07:15:19;5.13;;;4.53;;
36411;SDS011;22445;52.100;5.176;2023-05-21T07:17:45;5.10;;;4.30;;
36411;SDS011;22445;52.100;5.176;2023-05-21T07:20:11;6.50;;;4.50;;
36411;SDS011;22445;52.100;5.176;2023-05-21T07:22:37;6.38;;;4.60;;
36411;SDS011;22445;52.100;5.176;2023-05-21T07:25:03;4.78;;;3.97;;
36411;SDS011;22445;52.100;5.176;2023-05-21T07:27:30;6.78;;;4.55;;
36411;SDS011;22445;52.100;5.176;2023-05-21T07:29:55;8.20;;;4.60;;
36411;SDS011;22445;52.100;5.176;2023-05-21T07:32:21;5.93;;;4.13;;
36411;SDS011;22445;52.100;5.176;2023-05-21T07:34:46;5.68;;;4.47;;
36411;SDS011;22445;52.100;5.176;2023-05-21T07:37:12;6.00;;;4.07;;
36411;SDS011;22445;52.100;5.176;2023-05-21T07:39:38;4.70;;;4.15;;
36411;SDS011;22445;52.100;5.176;2023-05-21T07:42:04;3.72;;;3.42;;
36411;SDS011;22445;52.100;5.176;2023-05-21T07:44:29;5.70;;;4.35;;
36411;SDS011;22445;52.100;5.176;2023-05-21T07:46:56;5.13;;;3.70;;
36411;SDS011;22445;52.100;5.176;2023-05-21T07:49:21;5.80;;;4.28;;
36411;SDS011;22445;52.100;5.176;2023-05-21T07:51:47;5.25;;;4.22;;
36411;SDS011;22445;52.100;5.176;2023-05-21T07:54:13;6.68;;;4.63;;
36411;SDS011;22445;52.100;5.176;2023-05-21T07:56:39;4.47;;;4.07;;
36411;SDS011;22445;52.100;5.176;2023-05-21T07:59:05;9.38;;;4.63;;
36411;SDS011;22445;52.100;5.176;2023-05-21T08:01:30;5.88;;;4.35;;
36411;SDS011;22445;52.100;5.176;2023-05-21T08:03:57;5.90;;;4.50;;
36411;SDS011;22445;52.100;5.176;2023-05-21T08:06:29;4.85;;;4.40;;
36411;SDS011;22445;52.100;5.176;2023-05-21T08:08:55;5.18;;;4.55;;
36411;SDS011;22445;52.100;5.176;2023-05-21T08:11:21;6.13;;;5.15;;
36411;SDS011;22445;52.100;5.176;2023-05-21T08:13:47;6.05;;;4.05;;
36411;SDS011;22445;52.100;5.176;2023-05-21T08:16:13;4.00;;;3.63;;
36411;SDS011;22445;52.100;5.176;2023-05-21T08:18:38;4.63;;;4.13;;
36411;SDS011;22445;52.100;5.176;2023-05-21T08:21:04;8.80;;;4.75;;
36411;SDS011;22445;52.100;5.176;2023-05-21T08:23:30;4.28;;;3.72;;
36411;SDS011;22445;52.100;5.176;2023-05-21T08:25:55;5.10;;;4.25;;
36411;SDS011;22445;52.100;5.176;2023-05-21T08:28:21;5.45;;;4.28;;
36411;SDS011;22445;52.100;5.176;2023-05-21T08:30:47;5.32;;;3.90;;
36411;SDS011;22445;52.100;5.176;2023-05-21T08:33:13;6.25;;;4.35;;
36411;SDS011;22445;52.100;5.176;2023-05-21T08:35:39;4.68;;;4.22;;
36411;SDS011;22445;52.100;5.176;2023-05-21T08:38:04;4.53;;;4.03;;
36411;SDS011;22445;52.100;5.176;2023-05-21T08:40:30;6.15;;;4.35;;
36411;SDS011;22445;52.100;5.176;2023-05-21T08:42:55;4.25;;;3.80;;
36411;SDS011;22445;52.100;5.176;2023-05-21T08:45:21;5.97;;;4.55;;
36411;SDS011;22445;52.100;5.176;2023-05-21T08:47:50;7.20;;;4.85;;
36411;SDS011;22445;52.100;5.176;2023-05-21T08:50:20;3.97;;;3.58;;
36411;SDS011;22445;52.100;5.176;2023-05-21T08:52:46;5.20;;;3.58;;
36411;SDS011;22445;52.100;5.176;2023-05-21T08:55:11;6.38;;;4.18;;
36411;SDS011;22445;52.100;5.176;2023-05-21T08:57:41;5.88;;;4.80;;
36411;SDS011;22445;52.100;5.176;2023-05-21T09:00:07;5.38;;;4.28;;
36411;SDS011;22445;52.100;5.176;2023-05-21T09:02:33;5.45;;;4.38;;
36411;SDS011;22445;52.100;5.176;2023-05-21T09:05:00;5.47;;;3.72;;
36411;SDS011;22445;52.100;5.176;2023-05-21T09:07:27;5.82;;;4.13;;
36411;SDS011;22445;52.100;5.176;2023-05-21T09:09:54;5.15;;;4.65;;
36411;SDS011;22445;52.100;5.176;2023-05-21T09:12:24;5.28;;;4.60;;
36411;SDS011;22445;52.100;5.176;2023-05-21T09:14:50;5.22;;;4.20;;
36411;SDS011;22445;52.100;5.176;2023-05-21T09:17:16;5.38;;;4.35;;
36411;SDS011;22445;52.100;5.176;2023-05-21T09:20:27;8.85;;;4.20;;
36411;SDS011;22445;52.100;5.176;2023-05-21T09:22:39;5.60;;;3.83;;
36411;SDS011;22445;52.100;5.176;2023-05-21T09:25:07;4.70;;;4.18;;
36411;SDS011;22445;52.100;5.176;2023-05-21T09:27:33;5.72;;;4.22;;
36411;SDS011;22445;52.100;5.176;2023-05-21T09:30:00;5.63;;;4.38;;
36411;SDS011;22445;52.100;5.176;2023-05-21T09:32:30;4.22;;;3.67;;
36411;SDS011;22445;52.100;5.176;2023-05-21T09:34:56;6.57;;;4.30;;
36411;SDS011;22445;52.100;5.176;2023-05-21T09:37:21;6.10;;;4.50;;
36411;SDS011;22445;52.100;5.176;2023-05-21T09:39:47;5.55;;;4.10;;
36411;SDS011;22445;52.100;5.176;2023-05-21T09:42:13;4.10;;;3.40;;
36411;SDS011;22445;52.100;5.176;2023-05-21T09:44:39;4.45;;;3.92;;
36411;SDS011;22445;52.100;5.176;2023-05-21T09:47:07;5.80;;;4.22;;
36411;SDS011;22445;52.100;5.176;2023-05-21T09:49:35;4.72;;;4.22;;
36411;SDS011;22445;52.100;5.176;2023-05-21T09:52:01;5.50;;;4.60;;
36411;SDS011;22445;52.100;5.176;2023-05-21T09:54:30;8.20;;;4.82;;
36411;SDS011;22445;52.100;5.176;2023-05-21T09:57:00;4.38;;;3.78;;
36411;SDS011;22445;52.100;5.176;2023-05-21T09:59:39;4.93;;;4.43;;
36411;SDS011;22445;52.100;5.176;2023-05-21T10:02:18;6.35;;;4.20;;
36411;SDS011;22445;52.100;5.176;2023-05-21T10:04:45;5.30;;;4.10;;
36411;SDS011;22445;52.100;5.176;2023-05-21T10:07:19;5.97;;;4.00;;
36411;SDS011;22445;52.100;5.176;2023-05-21T10:09:49;5.70;;;3.90;;
36411;SDS011;22445;52.100;5.176;2023-05-21T10:12:22;6.30;;;4.13;;
36411;SDS011;22445;52.100;5.176;2023-05-21T10:14:50;4.32;;;3.75;;
36411;SDS011;22445;52.100;5.176;2023-05-21T10:17:22;4.70;;;3.70;;
36411;SDS011;22445;52.100;5.176;2023-05-21T10:19:48;4.22;;;3.47;;
36411;SDS011;22445;52.100;5.176;2023-05-21T10:22:13;5.05;;;3.72;;
36411;SDS011;22445;52.100;5.176;2023-05-21T10:24:40;4.80;;;4.40;;
36411;SDS011;22445;52.100;5.176;2023-05-21T10:27:08;4.68;;;3.88;;
36411;SDS011;22445;52.100;5.176;2023-05-21T10:29:34;4.50;;;3.13;;
36411;SDS011;22445;52.100;5.176;2023-05-21T10:32:01;5.13;;;3.40;;
36411;SDS011;22445;52.100;5.176;2023-05-21T10:34:28;4.63;;;3.03;;
36411;SDS011;22445;52.100;5.176;2023-05-21T10:36:53;5.57;;;4.30;;
36411;SDS011;22445;52.100;5.176;2023-05-21T10:39:21;3.80;;;3.45;;
36411;SDS011;22445;52.100;5.176;2023-05-21T10:41:50;4.55;;;4.00;;
36411;SDS011;22445;52.100;5.176;2023-05-21T10:44:43;5.10;;;4.60;;
36411;SDS011;22445;52.100;5.176;2023-05-21T10:54:07;6.18;;;3.97;;
36411;SDS011;22445;52.100;5.176;2023-05-21T10:56:59;5.32;;;3.72;;
36411;SDS011;22445;52.100;5.176;2023-05-21T10:59:53;3.83;;;3.40;;
36411;SDS011;22445;52.100;5.176;2023-05-21T11:02:19;5.75;;;3.50;;
36411;SDS011;22445;52.100;5.176;2023-05-21T11:04:46;4.50;;;3.65;;
36411;SDS011;22445;52.100;5.176;2023-05-21T11:07:13;4.10;;;3.05;;
36411;SDS011;22445;52.100;5.176;2023-05-21T11:09:40;5.22;;;3.72;;
36411;SDS011;22445;52.100;5.176;2023-05-21T11:12:06;4.82;;;3.85;;
36411;SDS011;22445;52.100;5.176;2023-05-21T11:20:12;5.00;;;3.50;;
36411;SDS011;22445;52.100;5.176;2023-05-21T11:22:38;3.78;;;3.38;;
36411;SDS011;22445;52.100;5.176;2023-05-21T11:25:04;3.83;;;3.00;;
36411;SDS011;22445;52.100;5.176;2023-05-21T11:27:37;4.50;;;3.63;;
36411;SDS011;22445;52.100;5.176;2023-05-21T11:35:57;4.80;;;3.97;;
36411;SDS011;22445;52.100;5.176;2023-05-21T11:38:26;4.05;;;3.58;;
36411;SDS011;22445;52.100;5.176;2023-05-21T11:40:53;6.38;;;3.83;;
36411;SDS011;22445;52.100;5.176;2023-05-21T11:43:19;4.65;;;4.20;;
36411;SDS011;22445;52.100;5.176;2023-05-21T11:45:45;6.18;;;4.15;;
36411;SDS011;22445;52.100;5.176;2023-05-21T11:48:14;6.80;;;4.78;;
36411;SDS011;22445;52.100;5.176;2023-05-21T11:50:40;4.45;;;4.05;;
36411;SDS011;22445;52.100;5.176;2023-05-21T11:53:09;5.47;;;4.50;;
36411;SDS011;22445;52.100;5.176;2023-05-21T11:55:39;4.80;;;4.30;;
36411;SDS011;22445;52.100;5.176;2023-05-21T11:58:08;7.15;;;4.68;;
36411;SDS011;22445;52.100;5.176;2023-05-21T12:00:37;7.78;;;4.55;;
36411;SDS011;22445;52.100;5.176;2023-05-21T12:03:06;5.22;;;3.65;;
36411;SDS011;22445;52.100;5.176;2023-05-21T12:05:48;7.63;;;4.15;;
36411;SDS011;22445;52.100;5.176;2023-05-21T12:08:22;7.50;;;4.63;;
36411;SDS011;22445;52.100;5.176;2023-05-21T12:10:56;6.18;;;3.90;;
36411;SDS011;22445;52.100;5.176;2023-05-21T12:13:23;4.90;;;3.97;;
36411;SDS011;22445;52.100;5.176;2023-05-21T12:15:51;5.30;;;4.47;;
36411;SDS011;22445;52.100;5.176;2023-05-21T12:18:17;6.07;;;4.35;;
36411;SDS011;22445;52.100;5.176;2023-05-21T12:20:43;6.35;;;3.40;;
36411;SDS011;22445;52.100;5.176;2023-05-21T12:23:17;3.75;;;2.90;;
36411;SDS011;22445;52.100;5.176;2023-05-21T12:25:52;5.75;;;3.90;;
36411;SDS011;22445;52.100;5.176;2023-05-21T12:28:18;4.28;;;3.88;;
36411;SDS011;22445;52.100;5.176;2023-05-21T12:30:45;6.60;;;3.95;;
36411;SDS011;22445;52.100;5.176;2023-05-21T12:33:10;7.40;;;4.45;;
36411;SDS011;22445;52.100;5.176;2023-05-21T12:35:38;5.03;;;4.00;;
36411;SDS011;22445;52.100;5.176;2023-05-21T12:38:03;4.68;;;3.97;;
36411;SDS011;22445;52.100;5.176;2023-05-21T12:40:38;6.15;;;4.68;;
36411;SDS011;22445;52.100;5.176;2023-05-21T12:43:04;4.97;;;4.57;;
36411;SDS011;22445;52.100;5.176;2023-05-21T12:45:31;4.55;;;4.07;;
36411;SDS011;22445;52.100;5.176;2023-05-21T12:47:59;5.78;;;4.15;;
36411;SDS011;22445;52.100;5.176;2023-05-21T12:50:25;6.22;;;3.78;;
36411;SDS011;22445;52.100;5.176;2023-05-21T12:52:54;4.93;;;3.90;;
36411;SDS011;22445;52.100;5.176;2023-05-21T12:55:22;3.58;;;3.20;;
36411;SDS011;22445;52.100;5.176;2023-05-21T12:57:49;4.28;;;3.88;;
36411;SDS011;22445;52.100;5.176;2023-05-21T13:00:15;6.90;;;3.83;;
36411;SDS011;22445;52.100;5.176;2023-05-21T13:02:47;5.70;;;3.72;;
36411;SDS011;22445;52.100;5.176;2023-05-21T13:05:16;5.15;;;4.00;;
36411;SDS011;22445;52.100;5.176;2023-05-21T13:07:42;7.53;;;3.50;;
36411;SDS011;22445;52.100;5.176;2023-05-21T13:10:10;7.63;;;3.97;;
36411;SDS011;22445;52.100;5.176;2023-05-21T13:12:36;6.57;;;3.75;;
36411;SDS011;22445;52.100;5.176;2023-05-21T13:15:03;3.78;;;3.00;;
36411;SDS011;22445;52.100;5.176;2023-05-21T13:17:30;6.20;;;3.72;;
36411;SDS011;22445;52.100;5.176;2023-05-21T13:20:14;6.03;;;3.28;;
36411;SDS011;22445;52.100;5.176;2023-05-21T13:25:27;3.97;;;3.58;;
36411;SDS011;22445;52.100;5.176;2023-05-21T13:27:53;3.65;;;3.35;;
36411;SDS011;22445;52.100;5.176;2023-05-21T13:30:19;4.10;;;3.47;;
36411;SDS011;22445;52.100;5.176;2023-05-21T13:32:45;3.90;;;3.28;;
36411;SDS011;22445;52.100;5.176;2023-05-21T13:35:11;5.32;;;3.67;;
36411;SDS011;22445;52.100;5.176;2023-05-21T13:37:40;4.78;;;3.95;;
36411;SDS011;22445;52.100;5.176;2023-05-21T13:40:07;7.03;;;4.28;;
36411;SDS011;22445;52.100;5.176;2023-05-21T13:42:35;4.60;;;3.88;;
36411;SDS011;22445;52.100;5.176;2023-05-21T13:45:05;4.70;;;4.03;;
36411;SDS011;22445;52.100;5.176;2023-05-21T13:47:32;5.10;;;3.80;;
36411;SDS011;22445;52.100;5.176;2023-05-21T13:49:58;5.18;;;3.38;;
36411;SDS011;22445;52.100;5.176;2023-05-21T13:52:24;4.47;;;3.75;;
36411;SDS011;22445;52.100;5.176;2023-05-21T13:54:49;3.50;;;3.05;;
36411;SDS011;22445;52.100;5.176;2023-05-21T13:57:15;4.45;;;2.70;;
36411;SDS011;22445;52.100;5.176;2023-05-21T13:59:41;5.85;;;4.63;;
36411;SDS011;22445;52.100;5.176;2023-05-21T14:02:07;4.95;;;3.63;;
36411;SDS011;22445;52.100;5.176;2023-05-21T14:04:33;4.82;;;3.42;;
36411;SDS011;22445;52.100;5.176;2023-05-21T14:06:59;3.95;;;3.15;;
36411;SDS011;22445;52.100;5.176;2023-05-21T14:09:25;3.70;;;2.60;;
36411;SDS011;22445;52.100;5.176;2023-05-21T14:11:54;2.95;;;2.58;;
36411;SDS011;22445;52.100;5.176;2023-05-21T14:14:20;6.95;;;3.17;;
36411;SDS011;22445;52.100;5.176;2023-05-21T14:16:46;4.70;;;3.42;;
36411;SDS011;22445;52.100;5.176;2023-05-21T14:19:12;4.65;;;2.90;;
36411;SDS011;22445;52.100;5.176;2023-05-21T14:21:38;5.20;;;2.80;;
36411;SDS011;22445;52.100;5.176;2023-05-21T14:24:04;6.47;;;3.28;;
36411;SDS011;22445;52.100;5.176;2023-05-21T14:26:29;5.43;;;3.38;;
36411;SDS011;22445;52.100;5.176;2023-05-21T14:28:55;6.72;;;3.75;;
36411;SDS011;22445;52.100;5.176;2023-05-21T14:31:21;9.20;;;3.00;;
36411;SDS011;22445;52.100;5.176;2023-05-21T14:33:47;3.80;;;2.80;;
36411;SDS011;22445;52.100;5.176;2023-05-21T14:36:13;4.70;;;3.05;;
36411;SDS011;22445;52.100;5.176;2023-05-21T14:38:39;3.53;;;2.85;;
36411;SDS011;22445;52.100;5.176;2023-05-21T14:41:04;7.35;;;3.20;;
36411;SDS011;22445;52.100;5.176;2023-05-21T14:43:31;3.00;;;2.67;;
36411;SDS011;22445;52.100;5.176;2023-05-21T14:45:57;6.00;;;3.05;;
36411;SDS011;22445;52.100;5.176;2023-05-21T14:48:23;4.47;;;3.45;;
36411;SDS011;22445;52.100;5.176;2023-05-21T14:50:48;8.43;;;4.13;;
36411;SDS011;22445;52.100;5.176;2023-05-21T14:53:15;6.07;;;3.47;;
36411;SDS011;22445;52.100;5.176;2023-05-21T14:55:41;4.55;;;3.30;;
36411;SDS011;22445;52.100;5.176;2023-05-21T14:58:07;3.65;;;3.10;;
36411;SDS011;22445;52.100;5.176;2023-05-21T15:00:33;8.13;;;3.45;;
36411;SDS011;22445;52.100;5.176;2023-05-21T15:02:59;3.70;;;2.60;;
36411;SDS011;22445;52.100;5.176;2023-05-21T15:05:25;3.55;;;2.58;;
36411;SDS011;22445;52.100;5.176;2023-05-21T15:07:57;3.10;;;2.53;;
36411;SDS011;22445;52.100;5.176;2023-05-21T15:10:23;4.00;;;2.60;;